Airfield :
LOGIN :

Register | Disclaimer

   EN    FR    IT 

 










Legend :    VFR   Marginal VFR   IFR   Intensive IFR   Very Intensive IFR
Visi :
Ceiling :
>= 8 km
>= 3000ft
5 to 8 km
1000 to 3000 ft
1500m to 5 km
500 to 1000 ft
800 to 1500m
200 to 500 ft
< 800m
< 200 ft
Symbols :   Thunderstorms  Fog  Heavy snow  Heavy precipitations  Wind > 20 kt
SIGMETs :     Misc.  Thunderstorms  Icing  Turbulence  Mountain Waves  Volcanic Ashes







- Airport Elevation : 266 ft
- IATA code : NCL
- Download approach charts


EGNT - Newcastle

CURRENT METAR :
  • 181520Z 24013KT 9999 SCT032 18/12 Q1000

EXPIRED METARs :
  • 181450Z 25017G27KT 210V270 9999 SCT030 19/11 Q0999
  • 181420Z 24021G33KT 9999 SCT035 19/11 Q0999
  • 181350Z 24019G30KT 9999 FEW022 20/11 Q0998
  • 181320Z 24020G32KT 200V260 9999 FEW022 20/10 Q0998
  • 181250Z 25019G29KT 9999 FEW022 21/11 Q0997

TAF TAF EGNT
Valid from the 18 at 12:00 until the 19 at 12:00 UTC


181103Z 1812/1912 24015G25KT 9999 SCT030
TEMPO 1812/1817 25025G40KT
BECMG 1815/1818 21012KT
TEMPO 1819/1822 22015G30KT 6000 SHRA
BECMG 1903/1906 18015G25KT
TEMPO 1906/1912 19025G35KT
PROB30
TEMPO 1908/1912 20035G55KT
PROB30
TEMPO 1910/1912 4000 +SHRA
ATIS : +44 191 214 3400
No reported NOTAMs for that airfield.
2 SIGMETs reported for the Scottish FIR (EGPX) :
 
Severe turbulence
EGPX SIGMET 06 VALID 181400/181800 EGRR
EGPX SCOTTISH FIR SEV TURB FCST WI N5719 E00429 - N5701 E00458 - N5500 E00458 - N5500 W00232 - N5606 W00126 - N5735 E00402 - N5719 E00429 SFC/FL060 STNR NC=
Severe mountain waves
EGPX SIGMET 05 VALID 181400/181800 EGRR
EGPX SCOTTISH FIR SEV MTW FCST WI N5500 W00100 - N5500 W00420 - N5718 W00347 - N5749 W00044 - N5500 E00203 - N5500 W00100 FL040/240 MOV N 20KT NC=



MET'MAP, your aeronautical weather chart ! - Copyright ORBIFLY December 2007 - Disclaimer

ORBIFLY MET'MAP TEAM :

Programming & Development : Alexandra Zaïnal
Concept & Development : Baudouin d'Aumeries
Co-Development & Prog : Marc-Olivier Méhu
Technical & hardware support : Manuel Goepfert

Contact : metmap@orbifly.com




SOURCES & CREDITS :

   NOAA